Time;durP1;ratioP1;P1;durP2;ratioP2;P2;SDS_P1;SDS_P2;PMS_P1;PMS_P2;Temp;Humidity;BMP_temperature;BMP_pressure;BME280_temperature;BME280_humidity;BME280_pressure;Samples;Min_cycle;Max_cycle;Signal;HPM_P1;HPM_P2
2023/09/12 00:00:45;;;;;;;5.50;2.20;;;;;;;19.56;38.94;100728.69;108028;1283;21987;-59
2023/09/12 00:03:11;;;;;;;7.50;1.60;;;;;;;19.58;39.03;100727.54;107977;1284;21989;-71
2023/09/12 00:05:36;;;;;;;5.10;2.10;;;;;;;19.60;39.17;100724.63;108058;1283;21986;-60
2023/09/12 00:08:03;;;;;;;4.00;1.70;;;;;;;19.59;39.18;100724.46;108091;1283;21993;-59
2023/09/12 00:10:29;;;;;;;4.90;1.60;;;;;;;19.58;39.30;100722.20;108132;1277;22011;-71
2023/09/12 00:12:55;;;;;;;3.80;1.60;;;;;;;19.57;39.40;100719.39;108079;1286;21986;-70
2023/09/12 00:15:21;;;;;;;5.90;1.90;;;;;;;19.57;39.40;100716.54;108030;1280;22216;-70
2023/09/12 00:17:48;;;;;;;4.20;1.60;;;;;;;19.58;39.49;100718.09;108054;1286;22087;-71
2023/09/12 00:20:14;;;;;;;4.60;1.80;;;;;;;19.60;39.52;100716.41;108052;1283;21997;-70
2023/09/12 00:22:39;;;;;;;5.30;1.90;;;;;;;19.64;39.63;100718.23;108015;1280;21992;-58
2023/09/12 00:25:06;;;;;;;5.10;2.00;;;;;;;19.66;39.63;100715.06;108081;1283;22011;-70
2023/09/12 00:27:31;;;;;;;6.20;2.10;;;;;;;19.68;39.55;100715.18;108088;1286;21990;-71
2023/09/12 00:29:57;;;;;;;5.20;2.10;;;;;;;19.67;39.49;100715.39;108037;1283;21990;-58
2023/09/12 00:32:22;;;;;;;3.70;1.90;;;;;;;19.63;39.56;100713.26;108062;1286;21999;-59
2023/09/12 00:34:48;;;;;;;3.70;2.10;;;;;;;19.61;39.68;100710.88;108081;1283;23719;-71
2023/09/12 00:37:13;;;;;;;5.30;2.00;;;;;;;19.60;39.75;100709.67;108044;1283;21986;-58
2023/09/12 00:39:39;;;;;;;4.00;2.00;;;;;;;19.58;39.77;100711.69;108119;1288;22010;-72
2023/09/12 00:42:07;;;;;;;6.10;1.80;;;;;;;19.56;39.68;100713.39;108044;1286;22189;-71
2023/09/12 00:44:33;;;;;;;4.40;1.80;;;;;;;19.57;39.88;100710.15;108053;1286;21995;-58
2023/09/12 00:46:59;;;;;;;5.50;1.60;;;;;;;19.59;39.89;100711.85;108071;1286;22037;-59
2023/09/12 00:49:25;;;;;;;8.00;2.10;;;;;;;19.60;39.93;100709.48;108039;1283;23137;-72
2023/09/12 00:51:51;;;;;;;4.90;1.60;;;;;;;19.61;39.99;100709.08;107823;1288;21990;-71
2023/09/12 00:54:16;;;;;;;5.50;1.80;;;;;;;19.61;39.97;100709.06;107865;1288;22000;-71
2023/09/12 00:56:42;;;;;;;5.90;1.90;;;;;;;19.62;40.04;100710.47;108035;1283;22246;-59
2023/09/12 00:59:07;;;;;;;6.80;2.40;;;;;;;19.62;40.16;100713.13;107710;1287;22103;-72
2023/09/12 01:01:33;;;;;;;3.80;1.90;;;;;;;19.63;40.16;100715.21;107821;1288;21993;-71
2023/09/12 01:03:58;;;;;;;4.80;1.80;;;;;;;19.65;40.28;100715.67;107835;1286;22027;-72
2023/09/12 01:06:26;;;;;;;7.10;2.20;;;;;;;19.65;40.36;100717.80;108052;1288;22000;-71
2023/09/12 01:08:52;;;;;;;4.00;1.90;;;;;;;19.66;40.51;100717.05;108075;1285;22055;-71
2023/09/12 01:11:19;;;;;;;3.40;1.80;;;;;;;19.66;40.56;100720.77;108043;1288;21992;-60
2023/09/12 01:13:44;;;;;;;5.90;2.10;;;;;;;19.70;40.51;100721.50;108052;1280;22003;-73
2023/09/12 01:16:10;;;;;;;2.90;1.80;;;;;;;19.73;40.64;100721.02;108052;1288;22003;-72
2023/09/12 01:18:36;;;;;;;4.30;1.90;;;;;;;19.74;40.65;100718.65;108126;1283;21990;-60
2023/09/12 01:21:25;;;;;;;4.80;1.60;;;;;;;19.76;40.73;100721.95;108046;1284;21991;-59
2023/09/12 01:24:00;;;;;;;4.80;1.60;;;;;;;19.80;40.86;100724.96;108053;1288;21996;-59
2023/09/12 01:27:07;;;;;;;4.00;1.70;;;;;;;19.83;40.86;100725.73;108039;1288;22046;-73
2023/09/12 01:29:33;;;;;;;3.00;1.70;;;;;;;19.85;40.88;100725.08;108062;1286;21997;-57
2023/09/12 01:31:58;;;;;;;6.50;1.80;;;;;;;19.87;40.94;100723.95;107813;1286;21995;-60
2023/09/12 01:34:24;;;;;;;8.10;1.90;;;;;;;19.87;40.89;100728.00;108056;1283;22765;-59
2023/09/12 01:36:49;;;;;;;8.20;1.60;;;;;;;19.89;40.93;100730.47;108060;1288;22457;-58
2023/09/12 01:39:15;;;;;;;7.10;1.50;;;;;;;19.90;40.87;100731.66;108047;1288;21989;-71
2023/09/12 01:41:41;;;;;;;2.80;1.50;;;;;;;19.93;40.93;100731.36;108062;1283;21992;-72
2023/09/12 01:44:07;;;;;;;5.00;1.50;;;;;;;19.97;40.92;100731.17;107885;1288;21996;-72
2023/09/12 01:46:32;;;;;;;3.20;1.70;;;;;;;20.01;40.79;100723.70;107852;1288;21986;-71
2023/09/12 01:48:58;;;;;;;3.80;1.20;;;;;;;20.03;40.71;100726.59;107875;1286;21992;-58
2023/09/12 01:51:24;;;;;;;7.60;1.80;;;;;;;20.04;40.75;100728.00;107856;1288;21999;-58
2023/09/12 01:53:49;;;;;;;4.70;1.30;;;;;;;20.03;40.69;100729.11;107792;1284;21992;-58
2023/09/12 01:56:15;;;;;;;9.40;1.70;;;;;;;20.01;40.75;100726.88;108038;1283;21992;-59
2023/09/12 01:58:40;;;;;;;4.50;1.40;;;;;;;19.99;40.67;100725.73;107866;1288;22008;-59
2023/09/12 02:01:06;;;;;;;3.40;1.70;;;;;;;19.97;40.69;100728.14;107833;1280;22010;-71
2023/09/12 02:03:31;;;;;;;7.00;2.20;;;;;;;19.95;40.71;100725.91;108016;1286;22047;-58
2023/09/12 02:05:57;;;;;;;7.20;1.80;;;;;;;19.96;40.66;100724.83;108068;1288;22028;-71
2023/09/12 02:08:23;;;;;;;7.30;1.90;;;;;;;19.97;40.71;100728.50;108105;1283;22010;-71
2023/09/12 02:10:48;;;;;;;17.50;2.90;;;;;;;19.97;40.71;100727.98;108055;1286;21990;-59
2023/09/12 02:13:14;;;;;;;7.70;2.30;;;;;;;19.97;40.75;100729.23;108061;1280;22000;-59
2023/09/12 02:15:39;;;;;;;9.30;2.00;;;;;;;19.95;40.67;100726.79;108088;1283;21989;-71
2023/09/12 02:18:06;;;;;;;10.10;2.30;;;;;;;19.94;40.67;100730.63;108052;1288;22032;-71
2023/09/12 02:20:32;;;;;;;4.00;1.60;;;;;;;19.92;40.60;100732.13;108098;1283;22384;-71
2023/09/12 02:22:57;;;;;;;7.30;1.90;;;;;;;19.90;40.64;100730.96;108073;1283;21990;-71
2023/09/12 02:25:23;;;;;;;6.90;1.80;;;;;;;19.88;40.60;100728.52;108045;1278;21990;-58
2023/09/12 02:27:48;;;;;;;7.10;2.00;;;;;;;19.87;40.73;100730.54;108074;1286;21988;-65
2023/09/12 02:30:14;;;;;;;5.80;1.40;;;;;;;19.85;40.79;100730.08;108034;1283;22049;-59
2023/09/12 02:32:42;;;;;;;5.10;1.90;;;;;;;19.84;40.86;100732.96;108071;1283;22028;-58
2023/09/12 02:35:07;;;;;;;6.80;1.70;;;;;;;19.83;40.89;100735.32;108105;1288;21989;-71
2023/09/12 02:37:33;;;;;;;4.80;2.40;;;;;;;19.83;40.97;100737.29;108074;1283;22004;-72
2023/09/12 02:39:59;;;;;;;9.90;2.00;;;;;;;19.83;41.16;100736.20;108070;1283;22000;-72
2023/09/12 02:42:25;;;;;;;9.30;2.20;;;;;;;19.84;41.15;100734.41;108063;1288;21996;-71
2023/09/12 02:44:52;;;;;;;4.80;1.80;;;;;;;19.83;41.31;100735.69;108048;1288;21990;-58
2023/09/12 02:47:17;;;;;;;3.60;1.60;;;;;;;19.82;41.33;100736.63;108121;1283;22109;-71
2023/09/12 02:49:43;;;;;;;5.40;2.10;;;;;;;19.79;41.50;100733.19;108022;1286;21993;-71
2023/09/12 02:52:09;;;;;;;8.50;1.70;;;;;;;19.76;41.46;100734.04;108030;1286;22005;-59
2023/09/12 02:54:34;;;;;;;8.60;1.80;;;;;;;19.75;41.60;100736.92;108046;1283;21996;-58
2023/09/12 02:57:00;;;;;;;7.60;2.20;;;;;;;19.75;41.67;100742.09;108032;1288;21998;-58
2023/09/12 02:59:25;;;;;;;9.10;2.30;;;;;;;19.75;41.65;100744.92;108042;1286;22027;-57
2023/09/12 03:01:51;;;;;;;6.60;1.80;;;;;;;19.76;41.63;100745.78;108020;1286;21989;-70
2023/09/12 03:04:17;;;;;;;7.10;2.00;;;;;;;19.78;41.75;100746.81;107850;1288;21990;-70
2023/09/12 03:06:43;;;;;;;7.60;2.00;;;;;;;19.78;41.83;100746.26;107927;1289;23722;-58
2023/09/12 03:09:11;;;;;;;9.00;1.90;;;;;;;19.79;41.87;100747.27;107864;1286;21987;-58
2023/09/12 03:11:36;;;;;;;4.80;1.70;;;;;;;19.81;41.96;100751.45;107848;1286;21998;-59
2023/09/12 03:14:02;;;;;;;11.30;2.50;;;;;;;19.81;41.98;100753.23;107822;1286;21998;-69
2023/09/12 03:16:28;;;;;;;6.80;1.90;;;;;;;19.79;42.05;100758.66;107680;1289;21996;-59
2023/09/12 03:18:53;;;;;;;8.80;2.20;;;;;;;19.78;42.20;100762.83;107865;1283;21998;-58
2023/09/12 03:21:19;;;;;;;5.20;2.50;;;;;;;19.75;42.32;100767.37;107820;1283;21994;-69
2023/09/12 03:23:44;;;;;;;12.80;2.30;;;;;;;19.74;42.38;100768.67;107844;1289;22005;-57
2023/09/12 03:26:10;;;;;;;5.20;2.10;;;;;;;19.72;42.47;100770.17;107856;1277;22001;-58
2023/09/12 03:28:36;;;;;;;5.50;2.20;;;;;;;19.69;42.55;100770.50;107834;1286;21992;-70
2023/09/12 03:31:11;;;;;;;8.70;2.70;;;;;;;19.65;42.70;100767.29;107802;1286;22001;-60
2023/09/12 03:33:37;;;;;;;5.90;2.00;;;;;;;19.63;42.72;100765.42;107865;1285;21990;-58
2023/09/12 03:36:04;;;;;;;13.70;3.00;;;;;;;19.62;42.78;100765.48;107770;1289;23639;-70
2023/09/12 03:38:29;;;;;;;9.60;2.00;;;;;;;19.60;42.85;100768.03;107929;1280;21989;-71
2023/09/12 03:40:55;;;;;;;8.20;2.10;;;;;;;19.58;42.78;100764.02;107813;1287;21997;-58
2023/09/12 03:43:20;;;;;;;9.90;2.20;;;;;;;19.56;42.97;100764.29;107849;1280;22223;-59
2023/09/12 03:45:46;;;;;;;22.70;3.40;;;;;;;19.53;43.01;100763.54;107831;1283;22001;-70
2023/09/12 03:48:11;;;;;;;7.90;2.10;;;;;;;19.52;43.21;100767.51;107829;1289;21994;-70
2023/09/12 03:50:37;;;;;;;6.30;1.90;;;;;;;19.50;43.17;100770.95;107820;1283;22002;-61
2023/09/12 03:53:03;;;;;;;8.30;2.10;;;;;;;19.49;43.23;100771.20;107872;1283;21990;-58
2023/09/12 03:55:29;;;;;;;7.10;2.20;;;;;;;19.46;43.51;100768.98;107962;1289;22047;-69
2023/09/12 03:57:54;;;;;;;6.00;2.50;;;;;;;19.45;43.51;100772.23;107848;1289;22021;-69
2023/09/12 04:00:20;;;;;;;9.00;2.30;;;;;;;19.47;43.70;100775.70;107802;1289;22012;-60
2023/09/12 04:02:45;;;;;;;12.80;2.20;;;;;;;19.50;43.87;100779.69;107816;1286;22003;-69
2023/09/12 04:05:11;;;;;;;12.90;2.40;;;;;;;19.55;43.99;100777.34;107965;1280;21997;-71
2023/09/12 04:07:36;;;;;;;11.60;2.60;;;;;;;19.59;44.02;100775.00;108159;1280;22160;-71
2023/09/12 04:10:02;;;;;;;25.60;3.40;;;;;;;19.66;44.11;100774.20;108042;1288;21990;-72
2023/09/12 04:12:28;;;;;;;21.70;3.60;;;;;;;19.72;44.18;100775.86;108006;1288;21984;-71
2023/09/12 04:14:54;;;;;;;30.90;3.40;;;;;;;19.79;44.42;100775.75;108047;1288;22000;-71
2023/09/12 04:17:20;;;;;;;17.30;3.10;;;;;;;19.87;44.47;100778.05;108044;1286;21990;-58
2023/09/12 04:19:46;;;;;;;16.40;3.50;;;;;;;19.96;44.48;100779.66;108027;1283;21992;-60
2023/09/12 04:22:11;;;;;;;13.10;3.30;;;;;;;20.04;44.52;100778.76;108042;1283;21998;-71
2023/09/12 04:24:37;;;;;;;15.90;2.90;;;;;;;20.13;44.54;100785.48;108017;1283;22085;-59
2023/09/12 04:27:03;;;;;;;11.60;3.10;;;;;;;20.21;44.58;100781.71;108081;1288;22001;-59
2023/09/12 04:29:29;;;;;;;11.60;2.50;;;;;;;20.30;44.52;100782.39;108110;1288;21994;-70
2023/09/12 04:31:59;;;;;;;9.30;2.40;;;;;;;20.40;44.52;100783.33;108013;1286;21995;-60
2023/09/12 04:34:27;;;;;;;14.00;2.70;;;;;;;20.50;44.50;100782.35;108079;1288;22083;-69
2023/09/12 04:36:53;;;;;;;12.10;2.70;;;;;;;20.58;44.52;100781.97;108154;1288;21988;-58
2023/09/12 04:39:19;;;;;;;27.10;4.20;;;;;;;20.67;44.46;100779.20;108076;1283;21996;-59
2023/09/12 04:41:44;;;;;;;6.10;2.70;;;;;;;20.76;44.49;100778.08;108090;1283;21999;-59
2023/09/12 04:44:10;;;;;;;9.50;2.50;;;;;;;20.85;44.46;100781.24;108047;1280;21989;-66
2023/09/12 04:46:37;;;;;;;5.30;2.20;;;;;;;20.94;44.35;100783.66;108046;1288;21990;-71
2023/09/12 04:49:03;;;;;;;5.90;2.40;;;;;;;21.04;44.40;100784.05;108087;1288;22087;-69
2023/09/12 04:51:29;;;;;;;10.50;2.20;;;;;;;21.16;44.45;100784.34;108125;1286;22070;-70
2023/09/12 04:53:55;;;;;;;16.40;2.50;;;;;;;21.29;44.37;100781.56;108060;1280;22459;-58
2023/09/12 04:56:20;;;;;;;9.90;2.40;;;;;;;21.42;44.49;100784.80;107822;1280;22003;-57
2023/09/12 04:58:46;;;;;;;11.00;2.70;;;;;;;21.55;44.44;100785.77;108071;1288;22042;-69
2023/09/12 05:01:11;;;;;;;12.40;3.00;;;;;;;21.70;44.41;100783.79;108094;1288;21991;-69
2023/09/12 05:03:37;;;;;;;6.70;2.30;;;;;;;21.84;44.36;100782.15;108098;1288;21992;-57
2023/09/12 05:06:03;;;;;;;7.80;2.60;;;;;;;21.99;44.35;100779.20;108093;1283;21999;-71
2023/09/12 05:08:29;;;;;;;7.10;2.30;;;;;;;22.15;44.47;100778.35;108023;1288;21992;-69
2023/09/12 05:10:55;;;;;;;7.70;2.30;;;;;;;22.31;44.11;100778.59;108117;1283;21994;-58
2023/09/12 05:13:21;;;;;;;4.50;2.60;;;;;;;22.47;44.15;100775.39;108107;1283;22351;-69
2023/09/12 05:15:46;;;;;;;4.10;2.00;;;;;;;22.64;44.10;100778.72;108057;1288;21990;-60
2023/09/12 05:18:12;;;;;;;6.20;2.30;;;;;;;22.82;44.15;100780.91;108038;1284;21990;-57
2023/09/12 05:20:38;;;;;;;8.80;2.40;;;;;;;23.00;43.94;100783.10;108038;1288;22003;-69
2023/09/12 05:23:03;;;;;;;6.20;2.00;;;;;;;23.19;43.74;100783.83;108050;1276;24387;-57
2023/09/12 05:25:30;;;;;;;5.50;2.20;;;;;;;23.37;43.70;100784.58;108056;1283;21991;-59
2023/09/12 05:27:56;;;;;;;8.40;2.40;;;;;;;23.56;43.57;100787.23;108128;1283;21979;-58
2023/09/12 05:30:22;;;;;;;10.50;2.10;;;;;;;23.73;43.10;100784.03;108124;1288;21991;-69
2023/09/12 05:32:47;;;;;;;11.50;2.70;;;;;;;23.89;42.92;100783.77;108205;1283;21994;-58
2023/09/12 05:35:13;;;;;;;6.30;2.80;;;;;;;24.05;42.62;100786.00;108020;1288;21993;-70
2023/09/12 05:37:38;;;;;;;10.30;2.50;;;;;;;24.19;42.59;100786.97;108063;1286;21990;-69
2023/09/12 05:40:05;;;;;;;6.80;2.30;;;;;;;24.33;42.36;100784.10;108048;1286;21990;-70
2023/09/12 05:42:31;;;;;;;5.90;2.60;;;;;;;24.50;42.27;100777.67;108094;1283;21997;-58
2023/09/12 05:44:57;;;;;;;6.50;2.40;;;;;;;24.67;42.24;100776.55;108061;1283;21999;-70
2023/09/12 05:47:23;;;;;;;4.40;2.30;;;;;;;24.85;41.93;100777.57;108001;1286;22646;-70
2023/09/12 05:49:49;;;;;;;6.50;2.50;;;;;;;24.99;41.69;100779.70;108049;1283;21993;-69
2023/09/12 05:52:15;;;;;;;4.80;2.40;;;;;;;25.11;41.49;100777.84;108001;1283;22084;-58
2023/09/12 05:54:41;;;;;;;3.90;2.20;;;;;;;25.22;41.36;100776.02;108067;1284;21998;-70
2023/09/12 05:57:07;;;;;;;10.30;2.40;;;;;;;25.34;41.31;100777.19;108029;1288;21989;-59
2023/09/12 05:59:36;;;;;;;6.90;2.80;;;;;;;25.49;41.16;100778.55;108105;1288;21995;-59
2023/09/12 06:02:02;;;;;;;5.30;2.60;;;;;;;25.67;41.08;100782.70;108053;1285;21999;-70
2023/09/12 06:04:27;;;;;;;7.10;3.10;;;;;;;25.82;40.86;100783.63;108065;1283;21998;-70
2023/09/12 06:06:53;;;;;;;5.50;2.30;;;;;;;25.96;40.70;100786.44;107972;1280;21987;-70
2023/09/12 06:09:18;;;;;;;5.90;2.80;;;;;;;26.16;40.49;100786.99;107743;1286;22164;-58
2023/09/12 06:11:44;;;;;;;72.50;6.80;;;;;;;26.34;40.28;100786.42;108009;1288;21994;-59
2023/09/12 06:14:09;;;;;;;9.60;2.80;;;;;;;26.50;40.10;100786.16;108074;1286;21992;-70
2023/09/12 06:16:35;;;;;;;8.10;2.90;;;;;;;26.66;39.83;100789.14;108041;1286;21990;-61
2023/09/12 06:19:01;;;;;;;52.90;5.10;;;;;;;26.80;39.60;100788.84;108043;1283;22004;-58
2023/09/12 06:21:26;;;;;;;8.20;2.80;;;;;;;26.95;39.52;100790.50;108017;1288;21992;-70
2023/09/12 06:24:09;;;;;;;7.30;2.40;;;;;;;27.14;39.29;100792.31;107995;1286;21988;-58
2023/09/12 06:26:35;;;;;;;7.00;2.20;;;;;;;27.35;38.81;100789.77;108012;1288;22022;-59
2023/09/12 06:29:02;;;;;;;5.60;2.80;;;;;;;27.53;38.53;100789.14;108079;1286;21999;-70
2023/09/12 06:31:28;;;;;;;10.30;2.40;;;;;;;27.66;38.47;100789.21;108029;1288;22073;-59
2023/09/12 06:33:54;;;;;;;7.30;2.30;;;;;;;27.77;38.15;100790.91;108041;1288;21996;-59
2023/09/12 06:36:19;;;;;;;8.20;2.50;;;;;;;27.94;38.10;100789.94;108018;1280;22000;-70
2023/09/12 06:38:45;;;;;;;5.10;2.30;;;;;;;28.18;38.05;100796.18;108045;1283;21994;-68
2023/09/12 06:41:10;;;;;;;7.70;2.30;;;;;;;28.37;37.56;100798.08;108058;1288;21997;-59
2023/09/12 06:43:36;;;;;;;6.70;2.60;;;;;;;28.50;37.51;100800.52;108086;1283;21990;-58
2023/09/12 06:46:01;;;;;;;7.50;1.90;;;;;;;28.69;37.27;100800.95;108024;1283;21990;-58
2023/09/12 06:48:27;;;;;;;5.10;2.50;;;;;;;28.87;36.85;100799.99;108011;1279;22250;-70
2023/09/12 06:50:54;;;;;;;12.90;2.40;;;;;;;28.98;36.73;100801.79;108067;1283;21998;-70
2023/09/12 06:53:19;;;;;;;9.10;2.50;;;;;;;29.09;36.30;100804.74;108042;1280;22165;-59
2023/09/12 06:55:45;;;;;;;10.60;2.60;;;;;;;29.07;35.95;100805.92;108003;1288;21990;-61
2023/09/12 06:58:11;;;;;;;7.20;2.60;;;;;;;29.11;35.98;100808.38;108096;1279;21993;-58
2023/09/12 07:00:36;;;;;;;5.60;2.70;;;;;;;29.22;35.85;100809.56;108051;1280;21994;-59
2023/09/12 07:03:03;;;;;;;7.80;2.60;;;;;;;29.33;35.45;100811.56;108045;1286;22408;-59
2023/09/12 07:05:28;;;;;;;6.10;2.60;;;;;;;29.39;35.42;100807.79;108017;1283;22030;-69
2023/09/12 07:07:54;;;;;;;6.50;2.50;;;;;;;29.65;35.41;100802.32;108026;1285;23634;-60
2023/09/12 07:10:19;;;;;;;7.70;2.50;;;;;;;30.01;35.22;100801.59;107984;1284;21990;-63
2023/09/12 07:12:45;;;;;;;5.10;2.50;;;;;;;30.14;34.37;100805.59;108040;1283;21990;-59
2023/09/12 07:15:11;;;;;;;12.60;2.90;;;;;;;30.15;34.48;100805.98;108067;1285;23052;-69
2023/09/12 07:17:36;;;;;;;10.50;3.20;;;;;;;30.28;34.57;100807.89;108044;1288;21993;-69
2023/09/12 07:20:02;;;;;;;29.70;4.00;;;;;;;30.53;34.23;100807.13;108044;1284;22001;-69
2023/09/12 07:22:28;;;;;;;7.20;2.50;;;;;;;30.63;33.87;100805.96;107994;1288;22003;-59
2023/09/12 07:24:54;;;;;;;4.90;2.60;;;;;;;30.64;33.79;100807.85;107983;1286;22286;-69
2023/09/12 07:27:19;;;;;;;5.20;2.30;;;;;;;30.76;33.75;100803.88;108011;1284;21989;-69
2023/09/12 07:29:45;;;;;;;6.20;2.50;;;;;;;30.90;33.26;100803.98;108019;1279;21996;-59
2023/09/12 07:32:11;;;;;;;5.20;2.30;;;;;;;31.09;33.54;100799.71;108058;1287;21992;-59
2023/09/12 07:34:37;;;;;;;5.90;2.10;;;;;;;31.34;32.96;100803.08;107984;1281;22610;-69
2023/09/12 07:37:03;;;;;;;18.50;2.80;;;;;;;31.36;32.30;100804.69;107992;1288;22046;-69
2023/09/12 07:39:29;;;;;;;5.50;2.50;;;;;;;31.27;32.27;100800.98;107958;1288;21987;-58
2023/09/12 07:41:55;;;;;;;4.50;2.40;;;;;;;31.37;32.08;100801.31;108003;1280;22037;-69
2023/09/12 07:44:20;;;;;;;9.40;2.80;;;;;;;31.57;31.85;100800.22;107985;1282;21992;-69
2023/09/12 07:46:46;;;;;;;5.50;2.20;;;;;;;31.68;31.52;100804.23;108002;1288;21990;-70
2023/09/12 07:49:12;;;;;;;7.70;2.70;;;;;;;31.64;31.08;100802.66;108003;1288;21992;-60
2023/09/12 07:51:41;;;;;;;5.40;2.50;;;;;;;31.57;31.09;100799.61;107951;1288;21990;-61
2023/09/12 07:54:06;;;;;;;7.40;2.70;;;;;;;31.63;31.05;100800.38;107977;1288;21984;-58
2023/09/12 07:56:32;;;;;;;5.20;2.60;;;;;;;31.66;30.70;100799.34;107979;1286;21993;-66
2023/09/12 07:58:58;;;;;;;6.10;2.60;;;;;;;31.85;31.19;100800.48;107951;1284;22658;-58
2023/09/12 08:01:23;;;;;;;4.70;2.80;;;;;;;32.07;30.59;100800.92;107991;1283;22028;-59
2023/09/12 08:03:50;;;;;;;5.00;2.30;;;;;;;32.16;30.51;100796.91;107991;1288;22024;-58
2023/09/12 08:06:15;;;;;;;5.90;2.20;;;;;;;32.20;30.48;100797.81;108017;1288;21995;-68
2023/09/12 08:08:41;;;;;;;7.40;2.90;;;;;;;32.31;30.31;100800.79;108006;1288;21986;-58
2023/09/12 08:11:06;;;;;;;5.30;2.80;;;;;;;32.43;29.84;100800.16;108009;1280;21988;-67
2023/09/12 08:13:32;;;;;;;4.50;2.50;;;;;;;32.49;29.64;100798.70;108067;1284;21995;-58
2023/09/12 08:15:58;;;;;;;5.80;2.60;;;;;;;32.46;29.59;100797.87;108016;1288;21998;-68
2023/09/12 08:18:29;;;;;;;8.10;2.70;;;;;;;32.51;29.20;100801.98;108051;1288;21995;-58
2023/09/12 08:20:55;;;;;;;5.30;2.60;;;;;;;32.52;28.70;100801.13;108015;1286;23054;-68
2023/09/12 08:23:21;;;;;;;6.40;2.60;;;;;;;32.50;28.96;100801.46;108024;1288;22004;-59
2023/09/12 08:25:46;;;;;;;9.20;3.30;;;;;;;32.54;29.12;100803.78;107999;1283;21996;-62
2023/09/12 08:28:12;;;;;;;5.50;2.80;;;;;;;32.57;28.63;100802.90;107964;1285;21995;-70
2023/09/12 08:30:37;;;;;;;6.10;2.50;;;;;;;32.61;28.36;100801.11;107920;1287;21990;-59
2023/09/12 08:33:04;;;;;;;5.30;2.60;;;;;;;32.74;28.58;100798.69;107925;1288;22002;-68
2023/09/12 08:35:29;;;;;;;4.90;2.30;;;;;;;32.94;28.71;100798.44;109953;1286;21909;-60
2023/09/12 08:37:55;;;;;;;9.50;2.60;;;;;;;33.07;27.97;100798.71;109999;1278;21903;-61
2023/09/12 08:40:21;;;;;;;7.10;2.40;;;;;;;33.13;27.73;100798.46;108633;1280;22006;-66
2023/09/12 08:42:46;;;;;;;31.10;4.80;;;;;;;33.14;27.95;100797.65;108013;1286;22028;-59
2023/09/12 08:45:15;;;;;;;8.60;2.50;;;;;;;33.21;27.75;100796.40;108002;1288;21991;-59
2023/09/12 08:47:45;;;;;;;6.10;2.30;;;;;;;33.22;27.75;100801.92;108072;1288;21997;-68
2023/09/12 08:50:12;;;;;;;7.50;3.10;;;;;;;33.31;27.96;100802.84;108074;1284;21992;-67
2023/09/12 08:52:42;;;;;;;6.10;2.30;;;;;;;33.46;27.42;100802.66;108126;1286;22024;-62
2023/09/12 08:55:09;;;;;;;7.00;2.40;;;;;;;33.54;27.24;100805.58;108048;1288;21992;-69
2023/09/12 08:57:36;;;;;;;45.30;5.60;;;;;;;33.66;27.48;100792.35;107791;1286;21993;-59
2023/09/12 09:00:05;;;;;;;6.10;2.40;;;;;;;33.87;27.37;100793.26;108073;1288;21996;-67
2023/09/12 09:02:32;;;;;;;;;;;;;;;34.00;27.36;100793.20;108028;1288;24370;-59
2023/09/12 09:04:59;;;;;;;7.70;2.40;;;;;;;34.06;27.11;100790.98;108093;1286;21980;-60
2023/09/12 09:07:24;;;;;;;6.70;2.10;;;;;;;34.23;27.09;100781.48;108024;1288;21992;-59
2023/09/12 09:09:53;;;;;;;4.30;2.20;;;;;;;34.45;26.80;100778.30;107821;1288;22002;-67
2023/09/12 09:12:19;;;;;;;4.00;1.90;;;;;;;34.63;26.74;100781.30;107847;1286;22158;-67
2023/09/12 09:14:45;;;;;;;4.40;2.50;;;;;;;34.67;26.56;100780.81;107990;1288;21990;-62
2023/09/12 09:17:12;;;;;;;10.00;2.50;;;;;;;34.58;26.51;100783.27;108108;1283;21987;-59
2023/09/12 09:19:42;;;;;;;8.70;2.10;;;;;;;34.30;26.38;100782.23;107875;1283;21995;-59
2023/09/12 09:22:07;;;;;;;5.90;2.10;;;;;;;34.06;26.48;100782.80;108022;1283;22157;-59
2023/09/12 09:24:33;;;;;;;3.90;2.30;;;;;;;33.99;26.56;100782.04;108031;1288;22031;-67
2023/09/12 09:27:00;;;;;;;3.20;1.90;;;;;;;34.05;26.58;100780.28;108099;1276;23791;-59
2023/09/12 09:29:31;;;;;;;4.10;2.10;;;;;;;34.19;26.28;100781.07;108046;1288;22047;-59
2023/09/12 09:31:58;;;;;;;11.50;2.10;;;;;;;34.42;26.37;100781.49;108029;1283;21990;-67
2023/09/12 09:34:24;;;;;;;7.70;2.80;;;;;;;34.72;26.20;100780.48;108075;1283;21990;-68
2023/09/12 09:36:51;;;;;;;5.30;2.30;;;;;;;34.97;26.04;100781.65;107806;1288;21995;-58
2023/09/12 09:39:18;;;;;;;5.30;1.90;;;;;;;35.08;25.88;100780.80;108067;1280;21994;-67
2023/09/12 09:41:48;;;;;;;4.60;2.30;;;;;;;35.10;25.43;100782.92;108057;1286;22004;-68
2023/09/12 09:44:14;;;;;;;6.80;2.30;;;;;;;35.00;24.96;100780.79;108022;1281;22019;-67
2023/09/12 09:46:43;;;;;;;10.10;2.70;;;;;;;34.79;25.33;100784.42;108040;1283;21998;-68
2023/09/12 09:49:10;;;;;;;6.90;2.20;;;;;;;34.65;25.33;100783.48;108073;1284;23060;-67
2023/09/12 09:51:45;;;;;;;7.20;2.70;;;;;;;34.45;25.13;100779.48;108024;1288;21992;-59
2023/09/12 09:54:11;;;;;;;3.40;2.20;;;;;;;34.13;24.98;100779.46;108067;1288;21990;-67
2023/09/12 09:56:47;;;;;;;6.20;2.20;;;;;;;33.82;24.87;100779.66;108034;1288;22030;-68
2023/09/12 09:59:22;;;;;;;4.20;2.10;;;;;;;33.48;24.98;100784.04;108076;1283;21994;-69
2023/09/12 10:01:49;;;;;;;6.20;2.10;;;;;;;33.18;25.28;100784.52;108033;1286;23291;-69
2023/09/12 10:04:15;;;;;;;6.60;2.80;;;;;;;32.96;25.28;100780.60;108481;1286;22168;-58
2023/09/12 10:06:43;;;;;;;10.60;2.80;;;;;;;32.94;25.67;100777.83;107954;1288;22182;-66
2023/09/12 10:09:11;;;;;;;5.10;2.30;;;;;;;33.15;25.42;100776.44;107968;1280;22164;-58
2023/09/12 10:11:38;;;;;;;7.10;2.50;;;;;;;33.34;25.18;100781.64;108013;1288;22753;-67
2023/09/12 10:14:04;;;;;;;7.70;2.80;;;;;;;33.48;24.96;100780.23;108167;1288;21998;-66
2023/09/12 10:16:30;;;;;;;8.40;2.90;;;;;;;33.60;24.75;100780.82;107967;1288;21991;-59
2023/09/12 10:19:10;;;;;;;5.30;2.30;;;;;;;33.66;25.10;100780.90;108107;1282;21991;-57
2023/09/12 10:21:35;;;;;;;5.10;2.50;;;;;;;33.98;25.29;100775.60;108068;1278;22049;-57
2023/09/12 10:24:03;;;;;;;8.70;2.30;;;;;;;34.56;24.94;100771.64;108067;1286;21992;-69
2023/09/12 10:26:30;;;;;;;6.80;2.30;;;;;;;35.09;24.97;100768.66;108070;1288;22007;-57
2023/09/12 10:28:56;;;;;;;5.90;2.10;;;;;;;35.45;24.64;100765.54;108049;1286;21994;-68
2023/09/12 10:31:23;;;;;;;25.30;3.60;;;;;;;35.80;24.26;100766.02;107846;1286;21963;-57
2023/09/12 10:33:49;;;;;;;28.40;4.40;;;;;;;35.99;23.45;100768.67;107801;1282;21993;-57
2023/09/12 10:36:15;;;;;;;14.60;3.20;;;;;;;36.02;23.58;100767.60;108038;1288;21990;-71
2023/09/12 10:38:45;;;;;;;4.00;2.10;;;;;;;36.10;23.75;100770.87;107848;1288;23639;-57
2023/09/12 10:41:14;;;;;;;11.10;3.80;;;;;;;36.14;23.67;100770.33;108057;1283;22055;-57
2023/09/12 10:43:41;;;;;;;12.20;2.60;;;;;;;36.22;23.47;100767.83;108023;1288;22001;-57
2023/09/12 10:46:08;;;;;;;9.90;2.80;;;;;;;36.29;23.17;100763.96;108002;1283;21992;-57
2023/09/12 10:48:35;;;;;;;11.80;3.40;;;;;;;36.37;23.36;100764.64;108048;1288;21998;-57
2023/09/12 10:51:01;;;;;;;37.10;4.80;;;;;;;36.45;23.13;100764.58;108060;1288;21996;-58
2023/09/12 10:53:30;;;;;;;8.50;3.10;;;;;;;36.44;22.98;100766.63;108115;1283;22003;-57
2023/09/12 10:56:08;;;;;;;8.00;2.70;;;;;;;36.40;23.35;100762.64;107809;1285;22009;-57
2023/09/12 10:59:03;;;;;;;11.40;3.10;;;;;;;36.47;23.29;100757.16;108062;1288;21995;-71
2023/09/12 11:01:30;;;;;;;5.30;3.00;;;;;;;36.54;22.71;100752.06;107872;1288;21990;-71
2023/09/12 11:03:55;;;;;;;7.50;3.20;;;;;;;36.57;22.39;100750.42;108046;1288;21995;-71
2023/09/12 11:06:23;;;;;;;12.10;3.20;;;;;;;36.54;22.28;100748.12;108036;1288;22030;-57
2023/09/12 11:09:13;;;;;;;6.10;3.20;;;;;;;36.52;22.76;100750.54;108091;1288;21990;-57
2023/09/12 11:11:43;;;;;;;6.80;2.80;;;;;;;36.55;22.27;100749.04;108052;1288;21996;-73
2023/09/12 11:14:09;;;;;;;6.30;2.80;;;;;;;36.60;22.86;100749.45;108044;1288;22009;-58